createdAt,value
2022-08-11T00:00:21.000Z,101882.83
2022-08-11T00:02:54.020Z,101884.89
2022-08-11T00:05:14.493Z,101884.72
2022-08-11T00:07:28.232Z,101885.48
2022-08-11T00:09:42.727Z,101879.54
2022-08-11T00:11:59.163Z,101876.58
2022-08-11T00:14:20.925Z,101876.95
2022-08-11T00:16:34.538Z,101882.48
2022-08-11T00:18:50.141Z,101883.23
2022-08-11T00:21:04.825Z,101883.73
2022-08-11T00:23:21.455Z,101877.04
2022-08-11T00:25:35.030Z,101878.33
2022-08-11T00:27:48.316Z,101877.13
2022-08-11T00:30:01.758Z,101876.04
2022-08-11T00:32:19.865Z,101870.94
2022-08-11T00:34:35.301Z,101866.27
2022-08-11T00:36:55.365Z,101862.39
2022-08-11T00:39:13.876Z,101866.40
2022-08-11T00:41:35.852Z,101866.77
2022-08-11T00:44:11.112Z,101865.62
2022-08-11T00:46:35.520Z,101866.84
2022-08-11T00:49:03.398Z,101864.16
2022-08-11T00:51:27.073Z,101865.35
2022-08-11T00:54:15.207Z,101866.05
2022-08-11T00:57:09.262Z,101865.29
2022-08-11T01:00:03.971Z,101866.39
2022-08-11T01:02:30.804Z,101864.85
2022-08-11T01:05:17.715Z,101867.89
2022-08-11T01:08:02.715Z,101868.58
2022-08-11T01:10:37.309Z,101872.42
2022-08-11T01:13:08.435Z,101870.48
2022-08-11T01:16:11.040Z,101874.86
2022-08-11T01:19:04.304Z,101873.23
2022-08-11T01:21:55.857Z,101871.35
2022-08-11T01:24:47.120Z,101874.16
2022-08-11T01:27:39.979Z,101877.09
2022-08-11T01:30:41.981Z,101875.81
2022-08-11T01:33:57.983Z,101875.60
2022-08-11T01:36:45.734Z,101881.67
2022-08-11T01:39:31.373Z,101886.27
2022-08-11T01:42:29.269Z,101886.48
2022-08-11T01:45:14.998Z,101884.58
2022-08-11T01:47:55.922Z,101890.33
2022-08-11T01:50:18.645Z,101889.61
2022-08-11T01:52:43.034Z,101891.81
2022-08-11T01:55:06.519Z,101892.98
2022-08-11T01:57:32.262Z,101890.95
2022-08-11T01:59:51.607Z,101900.69
2022-08-11T02:02:44.340Z,101898.30
2022-08-11T02:05:15.454Z,101896.00
2022-08-11T02:07:36.508Z,101892.02
2022-08-11T02:10:25.762Z,101895.27
2022-08-11T02:12:56.512Z,101895.89
2022-08-11T02:15:16.353Z,101896.45
2022-08-11T02:17:49.695Z,101895.77
2022-08-11T02:20:30.300Z,101896.83
2022-08-11T02:23:11.300Z,101899.42
2022-08-11T02:25:33.111Z,101892.67
2022-08-11T02:27:51.619Z,101892.11
2022-08-11T02:30:09.742Z,101892.35
2022-08-11T02:32:45.538Z,101888.34
2022-08-11T02:35:11.973Z,101888.19
2022-08-11T02:37:30.816Z,101888.05
2022-08-11T02:39:50.649Z,101884.24
2022-08-11T02:42:35.391Z,101886.09
2022-08-11T02:45:10.772Z,101879.41
2022-08-11T02:47:40.112Z,101875.16
2022-08-11T02:50:07.202Z,101876.83
2022-08-11T02:52:34.576Z,101873.91
2022-08-11T02:54:55.588Z,101873.89
2022-08-11T02:57:16.796Z,101872.94
2022-08-11T02:59:53.982Z,101873.48
2022-08-11T03:02:18.004Z,101878.30
2022-08-11T03:04:39.546Z,101880.45
2022-08-11T03:07:02.770Z,101879.91
2022-08-11T03:09:28.352Z,101884.39
2022-08-11T03:12:15.953Z,101889.73
2022-08-11T03:14:57.556Z,101891.50
2022-08-11T03:17:22.807Z,101892.46
2022-08-11T03:19:48.673Z,101892.27
2022-08-11T03:22:11.938Z,101887.80
2022-08-11T03:24:32.185Z,101882.61
2022-08-11T03:26:56.087Z,101883.70
2022-08-11T03:29:18.160Z,101888.84
2022-08-11T03:31:31.938Z,101889.83
2022-08-11T03:34:07.560Z,101890.84
2022-08-11T03:37:16.005Z,101889.12
2022-08-11T03:39:35.577Z,101887.24
2022-08-11T03:42:03.494Z,101889.64
2022-08-11T03:44:28.858Z,101885.91
2022-08-11T03:47:00.071Z,101883.38
2022-08-11T03:49:31.794Z,101885.83
2022-08-11T03:51:55.668Z,101892.46
2022-08-11T03:54:21.916Z,101898.17
2022-08-11T03:57:06.909Z,101899.48
2022-08-11T03:59:47.924Z,101901.89
2022-08-11T04:02:24.205Z,101906.86
2022-08-11T04:05:18.007Z,101909.98
2022-08-11T04:08:14.076Z,101906.16
2022-08-11T04:11:03.510Z,101910.77
2022-08-11T04:14:21.271Z,101911.02
2022-08-11T04:16:50.724Z,101911.73
2022-08-11T04:19:41.279Z,101909.59
2022-08-11T04:22:36.286Z,101909.00
2022-08-11T04:25:25.146Z,101909.75
2022-08-11T04:28:18.910Z,101909.86
2022-08-11T04:31:10.180Z,101909.59
2022-08-11T04:33:44.796Z,101908.05
2022-08-11T04:36:13.393Z,101910.65
2022-08-11T04:38:49.215Z,101913.90
2022-08-11T04:41:35.680Z,101913.35
2022-08-11T04:44:19.867Z,101919.55
2022-08-11T04:46:52.831Z,101927.65
2022-08-11T04:49:44.904Z,101930.63
2022-08-11T04:52:42.732Z,101934.14
2022-08-11T04:55:30.299Z,101941.36
2022-08-11T04:58:07.552Z,101945.14
2022-08-11T05:00:37.760Z,101943.28
2022-08-11T05:03:34.468Z,101945.20
2022-08-11T05:06:25.976Z,101945.27
2022-08-11T05:09:22.096Z,101947.91
2022-08-11T05:12:05.960Z,101947.03
2022-08-11T05:14:55.796Z,101944.64
2022-08-11T05:17:32.056Z,101941.39
2022-08-11T05:20:05.470Z,101948.38
2022-08-11T05:22:43.651Z,101945.11
2022-08-11T05:26:42.985Z,101944.48
2022-08-11T05:28:29.622Z,101943.78
2022-08-11T05:31:02.823Z,101944.14
2022-08-11T05:33:38.266Z,101942.39
2022-08-11T05:36:00.131Z,101940.24
2022-08-11T05:38:38.581Z,101938.69
2022-08-11T05:41:16.663Z,101943.20
2022-08-11T05:44:21.769Z,101941.31
2022-08-11T05:46:36.384Z,101945.61
2022-08-11T05:49:07.771Z,101941.15
2022-08-11T05:51:39.107Z,101942.28
2022-08-11T05:54:28.221Z,101943.30
2022-08-11T05:56:53.308Z,101946.27
2022-08-11T05:59:06.883Z,101944.93
2022-08-11T06:01:25.889Z,101941.91
2022-08-11T06:03:59.991Z,101939.26
2022-08-11T06:06:14.983Z,101938.67
2022-08-11T06:08:37.092Z,101937.09
2022-08-11T06:10:51.090Z,101937.67
2022-08-11T06:13:06.230Z,101933.95
2022-08-11T06:15:20.173Z,101930.45
2022-08-11T06:17:38.473Z,101929.34
2022-08-11T06:20:06.126Z,101926.79
2022-08-11T06:22:26.237Z,101933.02
2022-08-11T06:24:41.382Z,101933.33
2022-08-11T06:27:12.445Z,101931.95
2022-08-11T06:29:37.945Z,101929.23
2022-08-11T06:32:04.266Z,101931.42
2022-08-11T06:34:28.087Z,101928.17
2022-08-11T06:36:48.433Z,101924.77
2022-08-11T06:39:13.095Z,101924.30
2022-08-11T06:41:35.537Z,101923.09
2022-08-11T06:43:56.472Z,101923.55
2022-08-11T06:46:13.393Z,101928.77
2022-08-11T06:48:43.525Z,101928.09
2022-08-11T06:51:16.277Z,101927.23
2022-08-11T06:53:36.585Z,101923.54
2022-08-11T06:56:08.425Z,101920.48
2022-08-11T06:58:40.822Z,101920.27
2022-08-11T07:01:00.318Z,101923.36
2022-08-11T07:03:15.698Z,101922.09
2022-08-11T07:05:36.468Z,101918.25
2022-08-11T07:08:52.590Z,101917.81
2022-08-11T07:11:46.425Z,101916.69
2022-08-11T07:14:19.154Z,101916.13
2022-08-11T07:16:41.721Z,101916.92
2022-08-11T07:19:16.579Z,101914.89
2022-08-11T07:22:03.157Z,101911.90
2022-08-11T07:24:59.577Z,101916.05
2022-08-11T07:27:39.315Z,101917.01
2022-08-11T07:29:55.565Z,101916.42
2022-08-11T07:32:25.903Z,101915.41
2022-08-11T07:34:43.847Z,101912.45
2022-08-11T07:36:59.686Z,101912.84
2022-08-11T07:39:24.151Z,101909.00
2022-08-11T07:41:40.532Z,101907.48
2022-08-11T07:44:11.051Z,101905.56
2022-08-11T07:46:41.477Z,101904.70
2022-08-11T07:49:11.687Z,101905.95
2022-08-11T07:51:42.348Z,101909.49
2022-08-11T07:53:58.606Z,101913.05
2022-08-11T07:56:23.332Z,101919.58
2022-08-11T07:59:11.388Z,101918.29
2022-08-11T08:01:44.293Z,101920.86
2022-08-11T08:04:14.345Z,101922.61
2022-08-11T08:06:44.550Z,101923.49
2022-08-11T08:09:15.022Z,101919.36
2022-08-11T08:11:46.596Z,101918.45
2022-08-11T08:14:16.425Z,101917.17
2022-08-11T08:16:46.330Z,101915.73
2022-08-11T08:18:59.627Z,101914.36
2022-08-11T08:21:16.811Z,101915.34
2022-08-11T08:23:36.015Z,101916.05
2022-08-11T08:25:50.544Z,101915.79
2022-08-11T08:28:05.619Z,101915.70
2022-08-11T08:30:37.111Z,101916.35
2022-08-11T08:32:50.287Z,101915.69
2022-08-11T08:35:04.449Z,101912.27
2022-08-11T08:37:45.883Z,101910.73
2022-08-11T08:39:51.750Z,101911.29
2022-08-11T08:42:08.250Z,101910.74
2022-08-11T08:44:40.893Z,101909.66
2022-08-11T08:46:58.243Z,101911.98
2022-08-11T08:49:14.120Z,101908.83
2022-08-11T08:52:02.440Z,101907.60
2022-08-11T08:54:16.248Z,101908.50
2022-08-11T08:56:34.840Z,101909.89
2022-08-11T08:58:51.518Z,101909.54
2022-08-11T09:01:06.420Z,101908.46
2022-08-11T09:03:41.866Z,101907.48
2022-08-11T09:05:57.498Z,101906.92
2022-08-11T09:08:11.607Z,101904.98
2022-08-11T09:10:26.475Z,101904.00
2022-08-11T09:12:41.942Z,101904.90
2022-08-11T09:15:05.762Z,101903.95
2022-08-11T09:17:19.052Z,101903.52
2022-08-11T09:19:32.554Z,101898.12
2022-08-11T09:22:13.733Z,101900.23
2022-08-11T09:24:43.895Z,101899.83
2022-08-11T09:27:04.211Z,101900.44
2022-08-11T09:29:17.409Z,101898.44
2022-08-11T09:31:39.739Z,101895.08
2022-08-11T09:33:57.270Z,101895.06
2022-08-11T09:36:24.543Z,101897.77
2022-08-11T09:38:54.027Z,101891.34
2022-08-11T09:41:10.381Z,101891.04
2022-08-11T09:43:42.273Z,101893.61
2022-08-11T09:45:56.530Z,101893.93
2022-08-11T09:48:10.816Z,101892.84
2022-08-11T09:50:24.419Z,101892.95
2022-08-11T09:52:57.216Z,101889.23
2022-08-11T09:55:17.337Z,101889.31
2022-08-11T09:57:48.378Z,101887.70
2022-08-11T10:00:12.181Z,101889.20
2022-08-11T10:02:31.462Z,101891.50
2022-08-11T10:04:47.380Z,101891.56
2022-08-11T10:07:05.203Z,101894.73
2022-08-11T10:09:22.235Z,101895.04
2022-08-11T10:11:38.447Z,101896.60
2022-08-11T10:14:33.778Z,101894.60
2022-08-11T10:16:44.330Z,101897.14
2022-08-11T10:18:58.625Z,101896.23
2022-08-11T10:21:14.292Z,101892.95
2022-08-11T10:24:00.542Z,101896.92
2022-08-11T10:26:36.055Z,101894.41
2022-08-11T10:29:11.598Z,101902.36
2022-08-11T10:31:57.913Z,101897.03
2022-08-11T10:34:14.350Z,101894.35
2022-08-11T10:36:27.929Z,101893.54
2022-08-11T10:38:41.403Z,101893.45
2022-08-11T10:41:14.737Z,101894.41
2022-08-11T10:44:02.825Z,101890.44
2022-08-11T10:46:17.452Z,101888.02
2022-08-11T10:48:43.583Z,101888.45
2022-08-11T10:51:13.647Z,101891.59
2022-08-11T10:53:44.394Z,101887.34
2022-08-11T10:56:13.974Z,101889.53
2022-08-11T10:58:44.073Z,101890.75
2022-08-11T11:01:00.017Z,101888.90
2022-08-11T11:03:22.775Z,101891.24
2022-08-11T11:06:28.164Z,101889.92
2022-08-11T11:08:30.653Z,101889.27
2022-08-11T11:10:46.479Z,101885.38
2022-08-11T11:13:23.500Z,101886.34
2022-08-11T11:15:55.569Z,101888.70
2022-08-11T11:18:12.769Z,101884.90
2022-08-11T11:20:34.511Z,101885.08
2022-08-11T11:22:53.585Z,101882.59
2022-08-11T11:25:14.055Z,101879.01
2022-08-11T11:27:36.282Z,101876.52
2022-08-11T11:30:09.856Z,101875.67
2022-08-11T11:32:33.535Z,101874.95
2022-08-11T11:35:17.564Z,101870.83
2022-08-11T11:37:34.338Z,101871.31
2022-08-11T11:39:48.150Z,101870.73
2022-08-11T11:42:04.281Z,101873.48
2022-08-11T11:44:18.381Z,101870.73
2022-08-11T11:46:38.881Z,101873.81
2022-08-11T11:48:53.640Z,101868.87
2022-08-11T11:51:07.316Z,101868.05
2022-08-11T11:53:21.496Z,101868.42
2022-08-11T11:55:35.418Z,101871.84
2022-08-11T11:58:06.483Z,101872.24
2022-08-11T12:00:39.216Z,101870.27
2022-08-11T12:02:55.309Z,101868.52
2022-08-11T12:05:09.427Z,101868.58
2022-08-11T12:07:39.856Z,101868.79
2022-08-11T12:09:53.633Z,101866.34
2022-08-11T12:12:23.156Z,101868.86
2022-08-11T12:14:36.798Z,101868.08
2022-08-11T12:16:51.279Z,101870.41
2022-08-11T12:19:07.058Z,101864.54
2022-08-11T12:21:21.439Z,101866.44
2022-08-11T12:23:52.184Z,101870.33
2022-08-11T12:26:27.280Z,101868.96
2022-08-11T12:28:43.646Z,101867.58
2022-08-11T12:30:58.021Z,101864.08
2022-08-11T12:33:11.391Z,101862.77
2022-08-11T12:35:25.275Z,101864.20
2022-08-11T12:37:41.207Z,101866.14
2022-08-11T12:40:42.133Z,101861.95
2022-08-11T12:43:06.095Z,101864.12
2022-08-11T12:45:35.249Z,101859.21
2022-08-11T12:48:40.144Z,101857.05
2022-08-11T12:50:57.100Z,101856.66
2022-08-11T12:53:13.380Z,101853.17
2022-08-11T12:55:43.162Z,101855.48
2022-08-11T12:58:20.477Z,101853.55
2022-08-11T13:00:51.647Z,101851.92
2022-08-11T13:03:22.134Z,101852.95
2022-08-11T13:05:44.306Z,101850.61
2022-08-11T13:07:58.450Z,101849.89
2022-08-11T13:10:16.757Z,101849.35
2022-08-11T13:12:51.046Z,101849.36
2022-08-11T13:15:05.907Z,101846.73
2022-08-11T13:17:40.278Z,101848.40
2022-08-11T13:19:57.845Z,101852.34
2022-08-11T13:22:11.461Z,101851.84
2022-08-11T13:24:25.460Z,101854.45
2022-08-11T13:26:49.436Z,101854.40
2022-08-11T13:29:03.332Z,101855.48
2022-08-11T13:31:17.089Z,101852.45
2022-08-11T13:33:31.618Z,101857.70
2022-08-11T13:35:45.223Z,101855.48
2022-08-11T13:38:18.740Z,101850.45
2022-08-11T13:40:54.761Z,101850.97
2022-08-11T13:43:06.152Z,101854.36
2022-08-11T13:45:19.707Z,101849.27
2022-08-11T13:47:34.531Z,101847.39
2022-08-11T13:49:52.836Z,101848.11
2022-08-11T13:52:06.398Z,101850.81
2022-08-11T13:54:25.358Z,101851.56
2022-08-11T13:56:40.941Z,101851.57
2022-08-11T13:58:54.141Z,101854.12
2022-08-11T14:02:03.539Z,101854.52
2022-08-11T14:04:30.389Z,101854.55
2022-08-11T14:06:21.493Z,101853.79
2022-08-11T14:08:40.232Z,101855.58
2022-08-11T14:12:20.439Z,101855.73
2022-08-11T14:13:48.500Z,101859.02
2022-08-11T14:16:05.962Z,101856.77
2022-08-11T14:18:25.562Z,101854.91
2022-08-11T14:20:57.373Z,101856.27
2022-08-11T14:23:12.091Z,101853.48
2022-08-11T14:26:00.564Z,101856.58
2022-08-11T14:28:32.463Z,101856.38
2022-08-11T14:30:50.031Z,101858.73
2022-08-11T14:33:14.281Z,101855.97
2022-08-11T14:35:31.662Z,101856.79
2022-08-11T14:37:45.668Z,101858.35
2022-08-11T14:40:04.098Z,101862.25
2022-08-11T14:42:37.696Z,101861.98
2022-08-11T14:45:09.825Z,101859.87
2022-08-11T14:47:25.602Z,101858.39
2022-08-11T14:49:49.194Z,101857.52
2022-08-11T14:52:17.320Z,101860.52
2022-08-11T14:54:50.034Z,101855.14
2022-08-11T14:57:04.425Z,101856.73
2022-08-11T14:59:17.955Z,101854.12
2022-08-11T15:02:00.329Z,101852.12
2022-08-11T15:04:34.455Z,101853.73
2022-08-11T15:06:46.910Z,101852.79
2022-08-11T15:09:00.006Z,101849.36
2022-08-11T15:11:34.348Z,101849.29
2022-08-11T15:13:47.611Z,101849.09
2022-08-11T15:16:29.111Z,101849.53
2022-08-11T15:18:43.742Z,101847.34
2022-08-11T15:21:13.195Z,101848.90
2022-08-11T15:23:42.622Z,101847.77
2022-08-11T15:26:01.055Z,101841.52
2022-08-11T15:28:34.189Z,101840.12
2022-08-11T15:31:04.957Z,101832.51
2022-08-11T15:33:38.135Z,101830.39
2022-08-11T15:36:07.378Z,101829.48
2022-08-11T15:38:23.409Z,101829.44
2022-08-11T15:40:56.077Z,101825.21
2022-08-11T15:43:31.480Z,101828.19
2022-08-11T15:45:52.250Z,101825.25
2022-08-11T15:48:11.354Z,101822.77
2022-08-11T15:50:25.870Z,101820.64
2022-08-11T15:52:45.591Z,101823.73
2022-08-11T15:55:03.555Z,101818.20
2022-08-11T15:57:40.078Z,101816.72
2022-08-11T16:00:10.198Z,101813.46
2022-08-11T16:02:44.411Z,101811.39
2022-08-11T16:04:58.881Z,101808.75
2022-08-11T16:07:15.489Z,101809.53
2022-08-11T16:09:47.606Z,101807.79
2022-08-11T16:12:08.786Z,101806.02
2022-08-11T16:14:39.484Z,101808.13
2022-08-11T16:16:57.304Z,101802.98
2022-08-11T16:19:12.430Z,101800.87
2022-08-11T16:21:34.946Z,101801.42
2022-08-11T16:23:51.161Z,101800.38
2022-08-11T16:27:09.452Z,101804.52
2022-08-11T16:28:42.146Z,101799.20
2022-08-11T16:30:57.468Z,101797.05
2022-08-11T16:33:48.890Z,101795.94
2022-08-11T16:36:03.651Z,101797.66
2022-08-11T16:38:33.604Z,101795.13
2022-08-11T16:40:48.555Z,101791.47
2022-08-11T16:43:19.723Z,101795.33
2022-08-11T16:45:50.531Z,101795.06
2022-08-11T16:48:35.044Z,101792.47
2022-08-11T16:50:39.521Z,101787.63
2022-08-11T16:52:53.579Z,101786.31
2022-08-11T16:55:07.030Z,101782.59
2022-08-11T16:57:37.124Z,101778.81
2022-08-11T16:59:56.087Z,101778.81
2022-08-11T17:02:15.642Z,101778.88
2022-08-11T17:04:55.763Z,101775.77
2022-08-11T17:07:40.217Z,101777.23
2022-08-11T17:10:39.679Z,101773.27
2022-08-11T17:13:12.317Z,101774.52
2022-08-11T17:15:46.403Z,101775.71
2022-08-11T17:18:06.194Z,101773.78
2022-08-11T17:20:41.764Z,101777.11
2022-08-11T17:23:13.342Z,101778.80
2022-08-11T17:25:29.447Z,101776.45
2022-08-11T17:27:44.128Z,101775.78
2022-08-11T17:29:59.602Z,101776.79
2022-08-11T17:32:55.883Z,101779.21
2022-08-11T17:35:32.147Z,101775.84
2022-08-11T17:37:46.959Z,101773.48
2022-08-11T17:40:01.357Z,101774.40
2022-08-11T17:42:33.366Z,101775.86
2022-08-11T17:45:07.539Z,101775.70
2022-08-11T17:47:37.844Z,101773.71
2022-08-11T17:49:51.325Z,101776.17
2022-08-11T17:52:21.217Z,101772.38
2022-08-11T17:54:51.152Z,101772.17
2022-08-11T17:57:21.661Z,101766.05
2022-08-11T17:59:51.396Z,101769.63
2022-08-11T18:02:20.961Z,101768.39
2022-08-11T18:04:48.297Z,101768.70
2022-08-11T18:07:02.403Z,101774.30
2022-08-11T18:09:39.137Z,101772.20
2022-08-11T18:12:12.217Z,101770.02
2022-08-11T18:14:43.796Z,101768.53
2022-08-11T18:17:13.346Z,101771.65
2022-08-11T18:19:42.796Z,101772.16
2022-08-11T18:22:16.043Z,101775.58
2022-08-11T18:24:50.189Z,101777.85
2022-08-11T18:27:23.247Z,101777.89
2022-08-11T18:29:56.341Z,101774.72
2022-08-11T18:32:46.246Z,101774.15
2022-08-11T18:35:18.474Z,101773.82
2022-08-11T18:37:52.952Z,101773.38
2022-08-11T18:40:27.524Z,101772.89
2022-08-11T18:43:00.316Z,101766.92
2022-08-11T18:45:30.936Z,101768.41
2022-08-11T18:48:19.715Z,101764.63
2022-08-11T18:51:29.540Z,101769.52
2022-08-11T18:53:39.815Z,101767.48
2022-08-11T18:56:11.002Z,101769.72
2022-08-11T18:58:47.211Z,101769.45
2022-08-11T19:01:19.307Z,101767.16
2022-08-11T19:03:50.735Z,101760.04
2022-08-11T19:06:38.214Z,101757.52
2022-08-11T19:09:22.012Z,101760.00
2022-08-11T19:11:52.789Z,101760.02
2022-08-11T19:14:23.936Z,101755.92
2022-08-11T19:16:54.676Z,101755.30
2022-08-11T19:19:24.981Z,101754.55
2022-08-11T19:21:56.611Z,101749.27
2022-08-11T19:24:28.122Z,101756.73
2022-08-11T19:26:58.520Z,101750.79
2022-08-11T19:30:05.046Z,101748.73
2022-08-11T19:32:21.645Z,101740.13
2022-08-11T19:34:51.550Z,101740.78
2022-08-11T19:37:24.772Z,101743.57
2022-08-11T19:39:54.788Z,101745.56
2022-08-11T19:42:27.073Z,101748.28
2022-08-11T19:44:57.262Z,101745.90
2022-08-11T19:47:28.172Z,101744.25
2022-08-11T19:49:59.533Z,101741.01
2022-08-11T19:52:29.817Z,101748.39
2022-08-11T19:55:00.828Z,101741.98
2022-08-11T19:57:33.396Z,101737.55
2022-08-11T20:00:06.393Z,101739.95
2022-08-11T20:02:35.708Z,101741.49
2022-08-11T20:05:14.200Z,101742.75
2022-08-11T20:07:46.148Z,101741.93
2022-08-11T20:10:18.139Z,101743.52
2022-08-11T20:12:54.187Z,101743.66
2022-08-11T20:15:34.925Z,101740.80
2022-08-11T20:18:01.881Z,101742.84
2022-08-11T20:20:33.603Z,101741.70
2022-08-11T20:23:05.963Z,101745.89
2022-08-11T20:25:36.950Z,101745.76
2022-08-11T20:28:08.476Z,101745.46
2022-08-11T20:30:38.302Z,101744.08
2022-08-11T20:33:09.101Z,101738.73
2022-08-11T20:35:41.098Z,101742.92
2022-08-11T20:38:13.814Z,101747.17
2022-08-11T20:40:45.662Z,101744.56
2022-08-11T20:44:08.206Z,101744.35
2022-08-11T20:46:09.322Z,101744.67
2022-08-11T20:48:42.336Z,101743.17
2022-08-11T20:51:16.465Z,101744.61
2022-08-11T20:53:48.805Z,101741.99
2022-08-11T20:56:21.376Z,101743.27
2022-08-11T20:59:14.400Z,101740.04
2022-08-11T21:01:52.209Z,101739.83
2022-08-11T21:04:22.986Z,101744.82
2022-08-11T21:06:56.053Z,101748.00
2022-08-11T21:09:58.667Z,101748.14
2022-08-11T21:12:20.163Z,101746.73
2022-08-11T21:14:51.332Z,101746.65
2022-08-11T21:17:27.708Z,101748.13
2022-08-11T21:20:10.929Z,101750.48
2022-08-11T21:22:59.314Z,101746.77
2022-08-11T21:25:37.895Z,101751.79
2022-08-11T21:28:09.800Z,101754.49
2022-08-11T21:30:40.045Z,101747.94
2022-08-11T21:33:10.302Z,101748.45
2022-08-11T21:35:45.111Z,101743.16
2022-08-11T21:38:16.196Z,101744.88
2022-08-11T21:40:47.820Z,101744.77
2022-08-11T21:43:20.230Z,101747.14
2022-08-11T21:45:51.527Z,101750.17
2022-08-11T21:48:23.665Z,101751.47
2022-08-11T21:50:53.164Z,101750.65
2022-08-11T21:53:22.961Z,101752.20
2022-08-11T21:55:52.844Z,101754.64
2022-08-11T21:58:22.845Z,101754.61
2022-08-11T22:00:53.344Z,101752.23
2022-08-11T22:03:24.057Z,101755.70
2022-08-11T22:05:56.751Z,101763.36
2022-08-11T22:08:27.141Z,101758.98
2022-08-11T22:10:56.952Z,101758.11
2022-08-11T22:13:26.082Z,101758.26
2022-08-11T22:15:56.099Z,101763.55
2022-08-11T22:18:25.766Z,101761.08
2022-08-11T22:20:57.297Z,101763.90
2022-08-11T22:23:27.012Z,101762.27
2022-08-11T22:26:07.321Z,101763.65
2022-08-11T22:28:42.270Z,101763.91
2022-08-11T22:31:11.865Z,101760.06
2022-08-11T22:34:02.173Z,101760.18
2022-08-11T22:36:33.593Z,101761.27
2022-08-11T22:39:04.688Z,101762.76
2022-08-11T22:41:33.985Z,101761.58
2022-08-11T22:44:03.475Z,101758.41
2022-08-11T22:46:34.051Z,101756.66
2022-08-11T22:49:05.604Z,101756.69
2022-08-11T22:51:37.581Z,101752.23
2022-08-11T22:54:07.005Z,101754.48
2022-08-11T22:56:36.840Z,101752.44
2022-08-11T22:59:06.561Z,101749.34
2022-08-11T23:01:39.494Z,101754.86
2022-08-11T23:04:25.642Z,101749.23
2022-08-11T23:06:57.848Z,101749.69
2022-08-11T23:09:28.466Z,101750.08
2022-08-11T23:12:06.636Z,101753.05
2022-08-11T23:14:39.517Z,101753.95
2022-08-11T23:17:09.796Z,101751.06
2022-08-11T23:20:06.836Z,101747.11
2022-08-11T23:22:49.506Z,101744.14
2022-08-11T23:25:19.970Z,101744.16
2022-08-11T23:27:50.795Z,101743.55
2022-08-11T23:30:21.601Z,101747.34
2022-08-11T23:32:52.266Z,101741.11
2022-08-11T23:35:39.086Z,101743.00
2022-08-11T23:38:10.982Z,101734.20
2022-08-11T23:40:40.428Z,101738.89
2022-08-11T23:43:09.720Z,101736.14
2022-08-11T23:45:39.692Z,101736.48
2022-08-11T23:48:10.048Z,101737.66
2022-08-11T23:50:40.607Z,101729.81
2022-08-11T23:53:10.111Z,101731.37
2022-08-11T23:55:40.318Z,101732.43
2022-08-11T23:58:10.520Z,101730.05
